Time;durP1;ratioP1;P1;durP2;ratioP2;P2;SDS_P1;SDS_P2;PMS_P1;PMS_P2;Temp;Humidity;BMP_temperature;BMP_pressure;BME280_temperature;BME280_humidity;BME280_pressure;Samples;Min_cycle;Max_cycle;Signal;HPM_P1;HPM_P2
2023/10/07 00:04:22;;;;;;;0.10;0.10;;;;;;;16.90;61.77;101138.34;15554734;28;20125;-52
2023/10/07 00:11:59;;;;;;;0.68;0.22;;;;;;;16.79;62.08;101130.03;15555044;28;20073;-53
2023/10/07 00:19:39;;;;;;;0.08;0.08;;;;;;;17.02;61.84;101114.69;15553791;28;20406;-49
2023/10/07 00:27:26;;;;;;;0.10;0.10;;;;;;;16.94;62.15;101125.97;15554012;28;20074;-53
2023/10/07 00:35:00;;;;;;;0.00;0.00;;;;;;;16.79;62.98;101110.22;15554040;28;20172;-51
2023/10/07 00:42:35;;;;;;;0.00;0.00;;;;;;;17.24;61.78;101102.06;15550636;28;20406;-51
2023/10/07 00:50:10;;;;;;;0.30;0.20;;;;;;;17.09;62.32;101091.78;15535671;28;20093;-55
2023/10/07 00:57:51;;;;;;;0.00;0.00;;;;;;;16.94;62.98;101096.13;15552023;28;20058;-54
2023/10/07 01:05:27;;;;;;;0.00;0.00;;;;;;;16.99;62.81;101074.53;15552339;28;20077;-52
2023/10/07 01:13:03;;;;;;;0.25;0.25;;;;;;;16.89;62.88;101077.88;15551823;28;20061;-50
2023/10/07 01:20:49;;;;;;;0.10;0.10;;;;;;;16.99;62.99;101082.66;15553691;28;20038;-54
2023/10/07 01:28:26;;;;;;;0.68;0.43;;;;;;;16.68;64.41;101087.47;15554377;28;20042;-54
2023/10/07 01:36:06;;;;;;;0.03;0.03;;;;;;;16.83;63.98;101087.81;15565629;28;20088;-52
2023/10/07 01:43:41;;;;;;;0.00;0.00;;;;;;;16.91;63.92;101077.63;15571312;28;20050;-52
2023/10/07 01:51:17;;;;;;;0.00;0.00;;;;;;;16.86;63.74;101072.13;15564088;28;20072;-52
2023/10/07 01:58:52;;;;;;;0.32;0.32;;;;;;;17.12;63.58;101068.78;15557412;28;20483;-52
2023/10/07 02:06:26;;;;;;;0.30;0.30;;;;;;;16.89;64.12;101075.16;15561159;28;20132;-52
2023/10/07 02:14:02;;;;;;;0.00;0.00;;;;;;;16.83;64.62;101081.53;15559794;28;20046;-51
2023/10/07 02:21:35;;;;;;;0.00;0.00;;;;;;;16.98;64.07;101067.47;15544561;28;20049;-48
2023/10/07 02:29:13;;;;;;;0.47;0.30;;;;;;;16.80;63.98;101022.41;15561543;28;20041;-52
2023/10/07 02:36:52;;;;;;;0.20;0.20;;;;;;;17.20;63.66;101045.84;15560247;28;20507;-51
2023/10/07 02:44:27;;;;;;;0.80;0.43;;;;;;;17.01;63.68;101040.66;15550607;28;20041;-52
2023/10/07 02:52:01;;;;;;;0.10;0.10;;;;;;;16.47;64.59;100996.03;15558906;28;20525;-50
2023/10/07 02:59:41;;;;;;;0.70;0.43;;;;;;;16.65;65.43;101052.75;15558905;28;20077;-51
2023/10/07 03:07:15;;;;;;;0.08;0.08;;;;;;;16.45;66.27;101052.34;15557391;28;20112;-51
2023/10/07 03:14:51;;;;;;;;;;;;;;;16.67;65.70;101041.66;15558883;28;20038;-49
2023/10/07 03:22:29;;;;;;;0.17;0.17;;;;;;;16.41;66.55;101041.16;15557483;28;19932;-49
2023/10/07 03:30:13;;;;;;;0.20;0.20;;;;;;;16.37;66.53;101040.03;15556493;28;20499;-51
2023/10/07 03:37:46;;;;;;;0.35;0.35;;;;;;;16.52;66.05;101034.06;15557504;28;20041;-49
2023/10/07 03:45:21;;;;;;;0.00;0.00;;;;;;;16.55;66.26;101042.53;15558691;28;20121;-48
2023/10/07 03:52:55;;;;;;;0.80;0.25;;;;;;;16.39;66.69;101040.59;15556688;28;20042;-50
2023/10/07 04:00:33;;;;;;;0.05;0.05;;;;;;;16.49;66.73;101045.38;15555630;28;20038;-50
2023/10/07 04:08:06;;;;;;;0.00;0.00;;;;;;;16.54;66.94;101032.75;15553583;28;20054;-51
2023/10/07 04:15:51;;;;;;;0.10;0.10;;;;;;;16.80;66.02;101033.25;15555064;28;20454;-50
2023/10/07 04:23:25;;;;;;;0.10;0.10;;;;;;;16.69;66.38;101029.47;15554737;28;20100;-49
2023/10/07 04:30:59;;;;;;;0.05;0.05;;;;;;;16.62;66.87;101045.09;15554166;28;20526;-49
2023/10/07 04:38:52;;;;;;;0.05;0.05;;;;;;;16.61;67.20;101042.63;15547883;28;20121;-50
2023/10/07 04:46:29;;;;;;;0.38;0.22;;;;;;;16.86;66.36;101024.13;15547142;28;20046;-51
2023/10/07 04:54:04;;;;;;;0.05;0.00;;;;;;;16.50;67.89;101022.63;15544219;28;20046;-49
2023/10/07 05:01:41;;;;;;;0.00;0.00;;;;;;;16.64;67.38;101013.13;15540427;28;20057;-51
2023/10/07 05:09:18;;;;;;;0.10;0.10;;;;;;;16.46;68.18;101008.78;15554401;28;20534;-47
2023/10/07 05:16:52;;;;;;;0.20;0.13;;;;;;;16.35;68.63;101014.22;15552407;28;20073;-49
2023/10/07 05:24:33;;;;;;;0.47;0.40;;;;;;;16.45;67.96;100995.44;15551787;28;20069;-50
2023/10/07 05:32:07;;;;;;;0.00;0.00;;;;;;;16.51;68.38;101027.00;15551726;28;20053;-53
2023/10/07 05:39:43;;;;;;;1.35;0.70;;;;;;;16.56;67.68;101021.69;15551935;28;20073;-50
2023/10/07 05:47:17;;;;;;;0.10;0.10;;;;;;;16.62;67.46;101022.59;15551075;28;20499;-50
2023/10/07 05:54:53;;;;;;;1.77;0.38;;;;;;;16.75;67.17;101022.31;15549442;28;20070;-50
2023/10/07 06:02:30;;;;;;;0.20;0.10;;;;;;;16.65;67.89;101030.25;15543938;28;20042;-48
2023/10/07 06:10:04;;;;;;;0.05;0.05;;;;;;;16.67;67.59;101034.34;15551994;28;20185;-49
2023/10/07 06:17:41;;;;;;;0.00;0.00;;;;;;;16.51;68.63;101043.28;15551040;28;20038;-48
2023/10/07 06:25:15;;;;;;;0.55;0.25;;;;;;;16.52;69.71;101053.03;15561736;28;20033;-50
2023/10/07 06:32:55;;;;;;;0.28;0.25;;;;;;;16.43;70.36;101063.44;15530104;28;20439;-49
2023/10/07 06:40:29;;;;;;;0.35;0.30;;;;;;;16.50;69.87;101074.13;15551304;28;20037;-49
2023/10/07 06:48:08;;;;;;;0.08;0.08;;;;;;;16.29;71.21;101089.97;15560170;28;20050;-48
2023/10/07 06:55:44;;;;;;;0.10;0.10;;;;;;;16.17;73.48;101091.06;15560248;28;20050;-52
2023/10/07 07:03:19;;;;;;;0.30;0.30;;;;;;;16.14;74.25;101107.81;15553949;28;20061;-47
2023/10/07 07:10:55;;;;;;;0.80;0.35;;;;;;;15.79;75.66;101109.47;15554812;28;20045;-52
2023/10/07 07:18:31;;;;;;;0.00;0.00;;;;;;;16.24;73.81;101114.25;15552535;28;20499;-48
2023/10/07 07:26:09;;;;;;;0.25;0.25;;;;;;;16.05;74.33;101113.56;15558576;28;20061;-49
2023/10/07 07:33:44;;;;;;;0.05;0.05;;;;;;;16.25;72.99;101106.94;15558932;28;20399;-49
2023/10/07 07:41:34;;;;;;;0.00;0.00;;;;;;;16.12;73.56;101112.63;15555318;28;20042;-50
2023/10/07 07:49:09;;;;;;;0.00;0.00;;;;;;;16.30;72.82;101129.53;15498737;28;20132;-50
2023/10/07 07:56:42;;;;;;;0.63;0.20;;;;;;;16.49;72.13;101123.97;15511955;28;20491;-49
2023/10/07 08:04:19;;;;;;;0.28;0.10;;;;;;;16.44;72.13;101130.09;15543996;28;20191;-51
2023/10/07 08:11:52;;;;;;;0.05;0.05;;;;;;;16.60;71.57;101125.81;15535291;28;20056;-49
2023/10/07 08:19:30;;;;;;;0.15;0.15;;;;;;;16.40;72.72;101136.22;15551686;28;20050;-47
2023/10/07 08:27:04;;;;;;;1.05;0.22;;;;;;;16.31;72.86;101141.19;15541429;28;20042;-47
2023/10/07 08:34:38;;;;;;;0.28;0.28;;;;;;;16.70;71.71;101131.44;15554336;28;20079;-50
2023/10/07 08:42:24;;;;;;;0.00;0.00;;;;;;;16.81;71.83;101116.22;15529691;28;20042;-50
2023/10/07 08:50:06;;;;;;;0.40;0.40;;;;;;;16.55;72.67;101120.28;15551529;28;20046;-47
2023/10/07 08:57:42;;;;;;;0.00;0.00;;;;;;;17.05;71.12;101108.78;15540157;28;20096;-54
2023/10/07 09:05:20;;;;;;;0.20;0.20;;;;;;;17.04;71.53;101118.00;15541888;28;20268;-52
2023/10/07 09:13:04;;;;;;;0.00;0.00;;;;;;;17.03;71.96;101091.97;15541676;28;20053;-50
2023/10/07 09:20:45;;;;;;;0.00;0.00;;;;;;;17.28;71.17;101105.13;15536750;28;20057;-51
2023/10/07 09:28:21;;;;;;;0.00;0.00;;;;;;;17.34;71.09;101088.66;15660229;23;20386;-49
2023/10/07 09:36:22;;;;;;;0.10;0.10;;;;;;;16.70;72.88;101111.66;15615899;28;20041;-49
2023/10/07 09:43:56;;;;;;;0.77;0.40;;;;;;;17.02;72.30;101107.41;15611488;28;20049;-51
2023/10/07 09:51:34;;;;;;;2.08;1.90;;;;;;;17.12;71.61;101108.66;15611108;28;20037;-49
2023/10/07 09:59:22;;;;;;;1.40;0.93;;;;;;;16.93;72.89;101102.63;15593640;28;20042;-49
2023/10/07 10:07:15;;;;;;;2.08;0.95;;;;;;;17.15;71.96;101108.16;15619174;28;20037;-52
2023/10/07 10:15:50;;;;;;;1.02;0.93;;;;;;;16.97;72.63;101114.59;15616252;28;20063;-49
2023/10/07 10:22:52;;;;;;;;;;;;;;;16.97;72.39;101101.03;15617155;28;20120;-49
2023/10/07 10:30:25;;;;;;;6.38;1.33;;;;;;;16.67;73.84;101082.31;15620116;28;19925;-49
2023/10/07 10:38:09;;;;;;;0.10;0.10;;;;;;;16.94;72.60;101082.56;15621866;28;20044;-50
2023/10/07 10:45:43;;;;;;;1.20;1.00;;;;;;;16.76;73.57;101086.31;15621720;28;20045;-50
2023/10/07 10:53:17;;;;;;;1.90;0.68;;;;;;;16.46;76.73;101071.09;15619196;28;20510;-48
2023/10/07 11:00:51;;;;;;;0.38;0.38;;;;;;;16.27;78.75;101050.63;15619571;28;20044;-48
2023/10/07 11:08:28;;;;;;;1.13;1.05;;;;;;;16.94;76.00;101031.88;15617941;28;20044;-50
2023/10/07 11:16:09;;;;;;;0.05;0.05;;;;;;;17.06;75.37;101024.47;15618847;28;20053;-47
2023/10/07 11:23:47;;;;;;;0.75;0.57;;;;;;;16.79;75.70;101037.03;15618020;28;20512;-49
2023/10/07 11:31:29;;;;;;;0.20;0.20;;;;;;;16.93;74.32;101040.25;15633099;28;20041;-48
2023/10/07 11:39:08;;;;;;;0.60;0.60;;;;;;;16.98;74.25;101026.78;15617330;28;20558;-50
2023/10/07 11:46:41;;;;;;;1.75;0.52;;;;;;;16.87;73.63;100987.00;15616697;28;20042;-50
2023/10/07 11:54:16;;;;;;;0.00;0.00;;;;;;;17.23;73.26;101027.19;15615478;28;20053;-48
2023/10/07 12:01:50;;;;;;;0.43;0.43;;;;;;;17.00;75.06;101024.63;15613597;28;20120;-50
2023/10/07 12:09:24;;;;;;;0.65;0.40;;;;;;;17.03;73.88;101014.13;15614795;28;20034;-47
2023/10/07 12:16:58;;;;;;;0.60;0.60;;;;;;;17.06;73.70;101018.22;15611752;28;20167;-49
2023/10/07 12:24:32;;;;;;;0.00;0.00;;;;;;;17.13;73.16;101021.59;15613759;28;20049;-52
2023/10/07 12:32:06;;;;;;;1.00;0.65;;;;;;;17.27;72.49;101011.25;15610695;28;20037;-51
2023/10/07 12:39:40;;;;;;;0.85;0.85;;;;;;;17.18;72.73;101012.72;15610970;28;20045;-51
2023/10/07 12:47:14;;;;;;;0.28;0.28;;;;;;;16.88;72.50;100973.22;15596374;28;20055;-51
2023/10/07 12:54:49;;;;;;;0.08;0.08;;;;;;;17.31;71.88;101020.53;15608648;28;20327;-48
2023/10/07 13:02:23;;;;;;;1.35;0.40;;;;;;;17.66;71.02;101005.81;15598575;28;20064;-49
2023/10/07 13:09:59;;;;;;;0.25;0.25;;;;;;;17.45;71.59;101013.69;15612073;28;20449;-49
2023/10/07 13:17:33;;;;;;;0.28;0.28;;;;;;;17.78;70.29;100999.25;15610633;28;20426;-51
2023/10/07 13:25:09;;;;;;;0.13;0.13;;;;;;;17.58;70.80;101001.66;15611295;28;20045;-49
2023/10/07 13:32:44;;;;;;;0.38;0.38;;;;;;;17.62;70.13;100997.34;15621197;28;20106;-52
2023/10/07 13:40:19;;;;;;;0.20;0.20;;;;;;;17.78;69.75;100995.72;15623055;28;20560;-48
2023/10/07 13:47:54;;;;;;;0.13;0.13;;;;;;;17.86;69.82;100989.84;15621287;28;20033;-49
2023/10/07 13:55:54;;;;;;;2.72;1.08;;;;;;;17.66;70.29;100965.09;15622293;28;20049;-50
2023/10/07 14:03:31;;;;;;;0.15;0.15;;;;;;;18.11;69.39;100978.47;15622050;28;20029;-49
2023/10/07 14:11:07;;;;;;;0.52;0.35;;;;;;;18.13;68.97;100962.72;15614124;28;20041;-53
2023/10/07 14:18:41;;;;;;;0.35;0.35;;;;;;;18.05;68.84;100974.06;15612318;28;20037;-51
2023/10/07 14:26:15;;;;;;;0.60;0.60;;;;;;;18.05;69.33;100982.19;15620583;28;20052;-49
2023/10/07 14:33:51;;;;;;;0.15;0.15;;;;;;;18.20;68.78;100965.25;15602830;28;20049;-49
2023/10/07 14:41:27;;;;;;;0.82;0.50;;;;;;;18.14;69.24;100977.97;15617787;28;20124;-52
2023/10/07 14:49:00;;;;;;;7.97;0.93;;;;;;;18.11;70.84;100975.75;15619486;28;20043;-49
2023/10/07 14:56:35;;;;;;;0.93;0.17;;;;;;;17.79;72.00;100981.88;15618016;28;20056;-54
2023/10/07 15:04:10;;;;;;;0.00;0.00;;;;;;;17.74;72.73;100983.72;15618982;28;20639;-50
2023/10/07 15:11:45;;;;;;;0.32;0.32;;;;;;;17.58;74.25;100988.09;15615638;28;20041;-53
2023/10/07 15:19:18;;;;;;;2.55;1.45;;;;;;;17.33;75.76;100991.25;15617694;28;20136;-49
2023/10/07 15:26:53;;;;;;;0.65;0.40;;;;;;;17.42;75.98;100994.38;15617137;28;20037;-46
2023/10/07 15:34:26;;;;;;;0.25;0.25;;;;;;;17.33;77.07;101002.09;15617320;28;20119;-48
2023/10/07 15:42:01;;;;;;;0.28;0.28;;;;;;;17.34;77.21;101003.72;15617348;28;20108;-47
2023/10/07 15:49:35;;;;;;;0.30;0.30;;;;;;;16.96;79.61;101018.88;15608403;28;20072;-52
2023/10/07 15:57:10;;;;;;;0.30;0.30;;;;;;;16.96;81.43;101026.19;15614949;28;20057;-50
2023/10/07 16:04:43;;;;;;;1.27;1.02;;;;;;;16.55;84.34;101030.84;15611153;28;20092;-49
2023/10/07 16:12:19;;;;;;;0.00;0.00;;;;;;;16.71;83.42;101031.97;15573394;28;20045;-50
2023/10/07 16:19:52;;;;;;;0.00;0.00;;;;;;;16.70;83.74;101028.44;15598278;28;20128;-49
2023/10/07 16:27:31;;;;;;;0.68;0.68;;;;;;;16.51;85.18;101037.84;15591446;28;20048;-47
2023/10/07 16:35:05;;;;;;;0.75;0.65;;;;;;;16.38;86.14;101038.94;15613764;28;20373;-49
2023/10/07 16:42:40;;;;;;;1.85;0.85;;;;;;;16.35;86.43;101036.72;15606174;28;20053;-51
2023/10/07 16:50:14;;;;;;;0.35;0.35;;;;;;;16.42;86.06;101040.13;15611227;28;20045;-54
2023/10/07 16:57:49;;;;;;;1.65;0.63;;;;;;;16.32;87.33;101054.28;15612192;28;20393;-49
2023/10/07 17:05:22;;;;;;;0.30;0.30;;;;;;;16.90;82.70;101046.16;15612010;28;20045;-50
2023/10/07 17:12:58;;;;;;;0.30;0.30;;;;;;;16.66;80.22;101015.63;15613415;28;20125;-50
2023/10/07 17:20:34;;;;;;;0.00;0.00;;;;;;;16.65;79.32;101051.94;15612756;28;20045;-49
2023/10/07 17:28:09;;;;;;;0.80;0.25;;;;;;;16.55;78.77;101057.94;15612221;28;20383;-56
2023/10/07 17:35:42;;;;;;;0.13;0.10;;;;;;;16.63;78.06;101054.84;15608888;28;20049;-53
2023/10/07 17:43:16;;;;;;;;;;;;;;;16.68;77.39;101054.13;15612732;28;20042;-51
2023/10/07 17:50:49;;;;;;;0.20;0.10;;;;;;;16.37;77.66;101045.44;15607148;28;20301;-47
2023/10/07 17:58:27;;;;;;;0.00;0.00;;;;;;;16.68;77.33;101062.25;15611472;28;20040;-51
2023/10/07 18:06:04;;;;;;;0.00;0.00;;;;;;;16.64;77.16;101067.34;15608333;28;20055;-49
2023/10/07 18:13:39;;;;;;;0.00;0.00;;;;;;;16.59;76.86;101075.38;15613657;28;20092;-48
2023/10/07 18:21:12;;;;;;;0.00;0.00;;;;;;;16.22;77.21;101056.78;15618598;28;20641;-48
2023/10/07 18:28:47;;;;;;;0.00;0.00;;;;;;;16.43;77.01;101060.72;15566750;28;20046;-51
2023/10/07 18:36:20;;;;;;;0.35;0.30;;;;;;;16.32;77.65;101065.13;15619320;28;20049;-47
2023/10/07 18:43:54;;;;;;;0.00;0.00;;;;;;;16.39;76.67;101072.28;15618300;28;20424;-47
2023/10/07 18:51:27;;;;;;;0.00;0.00;;;;;;;16.28;77.80;101055.84;15620116;28;20115;-47
2023/10/07 18:59:02;;;;;;;;;;;;;;;15.85;78.87;101026.47;15618207;28;20053;-49
2023/10/07 19:06:36;;;;;;;0.55;0.35;;;;;;;16.37;77.86;101055.44;15601737;28;19925;-51
2023/10/07 19:14:15;;;;;;;0.00;0.00;;;;;;;16.30;77.11;101044.75;15619386;28;20076;-49
2023/10/07 19:21:48;;;;;;;0.00;0.00;;;;;;;15.96;77.65;101058.13;15628157;28;20038;-48
2023/10/07 19:29:22;;;;;;;0.00;0.00;;;;;;;15.63;77.95;101064.16;15618467;28;20410;-47
2023/10/07 19:36:55;;;;;;;0.00;0.00;;;;;;;15.44;78.63;101082.38;15618938;28;20037;-45
2023/10/07 19:44:30;;;;;;;0.00;0.00;;;;;;;15.86;77.05;101071.47;15615124;28;20111;-47
2023/10/07 19:52:03;;;;;;;0.00;0.00;;;;;;;15.38;78.10;101090.59;15599735;28;20053;-50
2023/10/07 19:59:38;;;;;;;0.57;0.55;;;;;;;15.12;79.58;101100.78;15562451;28;20369;-52
2023/10/07 20:07:12;;;;;;;0.00;0.00;;;;;;;14.98;78.82;101115.56;15571293;28;20049;-50
2023/10/07 20:14:50;;;;;;;0.60;0.60;;;;;;;15.23;77.64;101118.91;15615639;28;20049;-48
2023/10/07 20:22:23;;;;;;;0.00;0.00;;;;;;;15.08;77.84;101147.44;15615799;28;20087;-52
2023/10/07 20:29:58;;;;;;;0.35;0.35;;;;;;;14.42;80.34;101165.28;15615206;28;20035;-54
2023/10/07 20:37:32;;;;;;;0.00;0.00;;;;;;;13.98;81.18;101192.28;15614086;28;20052;-52
2023/10/07 20:45:08;;;;;;;0.10;0.10;;;;;;;13.56;81.31;101199.28;15612255;28;20050;-55
2023/10/07 20:52:40;;;;;;;0.00;0.00;;;;;;;13.77;79.93;101198.94;15614334;28;20083;-49
2023/10/07 21:00:18;;;;;;;0.00;0.00;;;;;;;14.19;78.04;101203.75;15612021;28;20041;-51
2023/10/07 21:07:53;;;;;;;0.00;0.00;;;;;;;13.80;78.62;101216.53;15611510;28;20375;-50
2023/10/07 21:15:35;;;;;;;0.00;0.00;;;;;;;13.46;79.39;101215.13;15604398;28;20041;-54
2023/10/07 21:23:08;;;;;;;0.00;0.00;;;;;;;13.58;78.73;101229.59;15614182;28;20057;-53
2023/10/07 21:30:46;;;;;;;0.00;0.00;;;;;;;13.62;78.28;101249.69;15612751;28;20060;-53
2023/10/07 21:38:19;;;;;;;0.00;0.00;;;;;;;13.40;78.59;101262.66;15612103;28;20502;-53
2023/10/07 21:45:54;;;;;;;0.00;0.00;;;;;;;13.73;77.67;101270.56;15611298;28;20100;-55
2023/10/07 21:53:28;;;;;;;0.00;0.00;;;;;;;13.40;78.17;101259.16;15620764;28;20122;-55
2023/10/07 22:01:08;;;;;;;0.05;0.05;;;;;;;13.68;77.40;101269.56;15622166;28;20056;-56
2023/10/07 22:08:45;;;;;;;0.00;0.00;;;;;;;13.78;77.09;101262.63;15622116;28;20509;-54
2023/10/07 22:16:26;;;;;;;0.00;0.00;;;;;;;13.30;76.90;101274.97;15605766;28;20061;-53
2023/10/07 22:24:00;;;;;;;0.08;0.08;;;;;;;13.51;76.62;101283.53;15622261;28;20073;-51
2023/10/07 22:31:45;;;;;;;0.00;0.00;;;;;;;13.41;76.96;101279.69;15620280;28;20403;-51
2023/10/07 22:39:29;;;;;;;0.00;0.00;;;;;;;13.36;77.59;101290.28;15619240;28;20049;-55
2023/10/07 22:47:07;;;;;;;0.00;0.00;;;;;;;13.32;77.46;101291.75;15620944;28;20119;-50
2023/10/07 22:54:43;;;;;;;0.00;0.00;;;;;;;13.06;77.97;101311.53;15611753;28;20041;-52
2023/10/07 23:02:29;;;;;;;0.00;0.00;;;;;;;12.90;78.07;101328.97;15617086;28;20417;-51
2023/10/07 23:10:03;;;;;;;0.00;0.00;;;;;;;13.00;77.76;101329.34;15620812;28;20042;-52
2023/10/07 23:17:51;;;;;;;0.00;0.00;;;;;;;13.27;76.64;101330.97;15611223;28;20033;-52
2023/10/07 23:25:30;;;;;;;0.00;0.00;;;;;;;12.99;77.43;101333.94;15618625;28;20057;-50
2023/10/07 23:33:05;;;;;;;0.00;0.00;;;;;;;13.17;76.89;101332.44;15618092;28;20072;-50
2023/10/07 23:40:43;;;;;;;0.00;0.00;;;;;;;13.17;76.29;101327.88;15617584;28;20454;-48
2023/10/07 23:48:20;;;;;;;0.00;0.00;;;;;;;12.91;77.90;101371.03;15616280;28;20041;-50
2023/10/07 23:56:04;;;;;;;0.00;0.00;;;;;;;13.13;77.22;101390.50;15616849;28;20132;-50
